Time;durP1;ratioP1;P1;durP2;ratioP2;P2;SDS_P1;SDS_P2;PMS_P1;PMS_P2;Temp;Humidity;BMP_temperature;BMP_pressure;BME280_temperature;BME280_humidity;BME280_pressure;Samples;Min_cycle;Max_cycle;Signal;HPM_P1;HPM_P2
2021/05/30 00:00:35;;;;;;;4.95;3.58;;;;;;;9.03;68.76;101878.69;5027053;28;20099;-71
2021/05/30 00:03:02;;;;;;;4.90;3.38;;;;;;;9.07;69.31;101880.31;5012885;28;20044;-73
2021/05/30 00:05:31;;;;;;;6.25;3.45;;;;;;;9.11;69.63;101876.66;5046808;28;20045;-72
2021/05/30 00:07:58;;;;;;;6.03;3.03;;;;;;;9.14;69.87;101870.47;5010345;28;20484;-72
2021/05/30 00:10:26;;;;;;;7.35;3.55;;;;;;;9.17;70.58;101866.88;5015845;28;20063;-72
2021/05/30 00:12:53;;;;;;;6.15;3.40;;;;;;;9.08;71.52;101875.91;5034979;28;20088;-72
2021/05/30 00:15:21;;;;;;;6.43;3.25;;;;;;;8.98;71.08;101872.72;5029007;28;20049;-72
2021/05/30 00:17:56;;;;;;;7.85;4.30;;;;;;;8.85;72.36;101877.50;5002136;28;20067;-73
2021/05/30 00:20:23;;;;;;;7.03;3.70;;;;;;;8.89;71.89;101867.78;5027153;28;20092;-72
2021/05/30 00:22:50;;;;;;;5.45;3.63;;;;;;;8.83;72.42;101871.47;5045168;28;20470;-72
2021/05/30 00:25:17;;;;;;;6.63;3.65;;;;;;;8.78;72.66;101869.88;5014641;28;20118;-72
2021/05/30 00:27:44;;;;;;;7.13;3.83;;;;;;;8.65;72.93;101866.78;5030136;28;20099;-72
2021/05/30 00:30:13;;;;;;;5.88;3.58;;;;;;;8.73;73.51;101866.53;5031821;28;20079;-72
2021/05/30 00:32:40;;;;;;;6.75;3.78;;;;;;;8.69;74.11;101875.41;5014840;28;20159;-71
2021/05/30 00:35:08;;;;;;;6.07;4.20;;;;;;;8.58;74.78;101867.88;5030394;28;20419;-72
2021/05/30 00:37:35;;;;;;;6.28;3.88;;;;;;;8.50;75.41;101869.88;5021689;28;20116;-73
2021/05/30 00:40:03;;;;;;;6.15;4.45;;;;;;;8.40;75.71;101863.19;5036244;28;20126;-72
2021/05/30 00:42:30;;;;;;;8.93;3.80;;;;;;;8.48;75.72;101862.03;5014879;28;20107;-71
2021/05/30 00:44:58;;;;;;;6.35;3.83;;;;;;;8.50;75.87;101869.88;4994560;28;20049;-72
2021/05/30 00:47:25;;;;;;;5.50;3.38;;;;;;;8.57;76.02;101864.38;5053863;28;20156;-72
2021/05/30 00:49:52;;;;;;;7.45;4.28;;;;;;;8.44;77.02;101870.06;5008790;28;20132;-71
2021/05/30 00:52:19;;;;;;;4.80;4.00;;;;;;;8.32;77.74;101866.00;5048264;28;20046;-72
2021/05/30 00:54:46;;;;;;;5.38;3.47;;;;;;;8.42;77.77;101864.88;5029904;28;20124;-72
2021/05/30 00:57:14;;;;;;;8.30;4.35;;;;;;;8.30;78.56;101876.53;5046521;28;20566;-72
2021/05/30 00:59:41;;;;;;;7.93;5.10;;;;;;;8.32;79.35;101866.00;5027752;28;20099;-72
2021/05/30 01:02:08;;;;;;;7.00;3.60;;;;;;;8.33;78.64;101862.47;5027660;28;20067;-72
2021/05/30 01:04:36;;;;;;;6.38;3.92;;;;;;;8.26;79.04;101863.56;5027985;28;20049;-71
2021/05/30 01:07:03;;;;;;;11.85;4.20;;;;;;;8.27;79.63;101865.28;5028543;28;20123;-72
2021/05/30 01:09:32;;;;;;;6.55;4.65;;;;;;;8.26;79.76;101871.44;5045559;28;20081;-72
2021/05/30 01:12:02;;;;;;;5.78;4.65;;;;;;;8.28;80.18;101865.22;5019494;28;20067;-72
2021/05/30 01:14:29;;;;;;;6.70;4.47;;;;;;;8.19;80.42;101864.63;5012211;28;20503;-73
2021/05/30 01:16:57;;;;;;;6.65;4.10;;;;;;;8.17;80.84;101862.06;5031132;28;20141;-72
2021/05/30 01:19:28;;;;;;;10.95;4.88;;;;;;;8.17;80.77;101866.47;5015358;28;20038;-74
2021/05/30 01:21:57;;;;;;;8.75;4.75;;;;;;;8.11;81.03;101863.13;5013358;28;20057;-73
2021/05/30 01:24:24;;;;;;;7.72;4.95;;;;;;;8.06;81.57;101865.00;5024902;28;20191;-71
2021/05/30 01:26:52;;;;;;;10.32;4.70;;;;;;;8.00;82.14;101869.56;5031637;28;20152;-73
2021/05/30 01:29:19;;;;;;;8.00;4.50;;;;;;;8.09;80.94;101869.28;5028123;28;20048;-72
2021/05/30 01:31:46;;;;;;;7.95;4.57;;;;;;;7.97;81.32;101864.38;5025564;28;20077;-71
2021/05/30 01:34:14;;;;;;;8.00;5.20;;;;;;;7.94;80.71;101867.13;5028104;28;20147;-73
2021/05/30 01:36:41;;;;;;;11.07;4.78;;;;;;;7.90;81.95;101863.72;5028761;28;20045;-71
2021/05/30 01:39:08;;;;;;;6.70;4.43;;;;;;;7.85;82.06;101865.59;5046665;28;20485;-72
2021/05/30 01:41:35;;;;;;;6.88;4.90;;;;;;;7.83;81.77;101860.41;5010401;28;20042;-71
2021/05/30 01:44:03;;;;;;;11.65;5.18;;;;;;;7.77;82.13;101863.19;5027534;28;20053;-72
2021/05/30 01:46:30;;;;;;;7.93;4.53;;;;;;;7.64;82.77;101864.41;5027135;28;20072;-72
2021/05/30 01:48:58;;;;;;;10.35;4.68;;;;;;;7.67;82.13;101868.72;5013412;28;20073;-72
2021/05/30 01:51:25;;;;;;;8.88;4.97;;;;;;;7.64;82.34;101869.66;5045020;28;20367;-72
2021/05/30 01:54:04;;;;;;;8.15;4.80;;;;;;;7.60;82.48;101876.75;5046407;28;20057;-74
2021/05/30 01:56:56;;;;;;;7.85;5.30;;;;;;;7.62;82.51;101876.72;4970331;28;20048;-72
2021/05/30 01:59:28;;;;;;;8.50;5.57;;;;;;;7.67;81.31;101873.97;5040582;28;20088;-73
2021/05/30 02:01:57;;;;;;;9.88;4.95;;;;;;;7.63;81.76;101883.69;5014039;28;20094;-71
2021/05/30 02:04:31;;;;;;;7.00;4.45;;;;;;;7.51;81.80;101878.75;5049282;28;20157;-72
2021/05/30 02:06:59;;;;;;;6.53;4.95;;;;;;;7.53;81.77;101880.44;5004581;28;20073;-73
2021/05/30 02:09:27;;;;;;;7.07;4.50;;;;;;;7.53;81.31;101887.44;5034060;28;20090;-72
2021/05/30 02:11:54;;;;;;;9.68;4.80;;;;;;;7.52;80.64;101883.97;5046296;28;20057;-73
2021/05/30 02:14:21;;;;;;;6.03;3.92;;;;;;;7.48;80.91;101884.94;5051920;28;20136;-72
2021/05/30 02:16:49;;;;;;;10.80;4.80;;;;;;;7.43;81.28;101886.81;5046587;28;20140;-71
2021/05/30 02:19:16;;;;;;;7.72;5.32;;;;;;;7.41;81.24;101887.75;5035951;28;20412;-72
2021/05/30 02:21:45;;;;;;;11.90;4.47;;;;;;;7.42;80.70;101879.84;5034258;28;20091;-72
2021/05/30 02:24:14;;;;;;;8.23;4.30;;;;;;;7.51;80.70;101881.38;5038103;28;20503;-72
2021/05/30 02:26:42;;;;;;;8.55;4.93;;;;;;;7.50;80.02;101883.13;5034548;28;20478;-72
2021/05/30 02:29:10;;;;;;;7.57;4.47;;;;;;;7.41;80.41;101883.38;5029325;28;20140;-72
2021/05/30 02:31:37;;;;;;;8.52;4.40;;;;;;;7.40;80.30;101883.41;5032624;28;20068;-72
2021/05/30 02:34:04;;;;;;;8.75;4.60;;;;;;;7.29;80.21;101888.91;5034671;28;20110;-72
2021/05/30 02:36:32;;;;;;;8.05;4.22;;;;;;;7.29;79.97;101891.53;5005404;28;20057;-72
2021/05/30 02:38:59;;;;;;;9.10;4.90;;;;;;;7.30;79.95;101891.50;5058062;28;20496;-73
2021/05/30 02:41:26;;;;;;;9.75;4.80;;;;;;;7.31;79.53;101888.00;5056064;28;20121;-73
2021/05/30 02:43:53;;;;;;;8.93;4.40;;;;;;;7.24;79.60;101882.94;5048178;28;20049;-73
2021/05/30 02:46:20;;;;;;;9.95;4.55;;;;;;;7.20;80.09;101887.38;5033734;28;20113;-73
2021/05/30 02:48:48;;;;;;;7.55;4.03;;;;;;;7.27;79.53;101890.72;5040200;28;20069;-73
2021/05/30 02:51:15;;;;;;;8.15;4.15;;;;;;;7.23;79.71;101897.78;5060507;28;20360;-73
2021/05/30 02:53:42;;;;;;;7.30;4.60;;;;;;;7.28;79.32;101888.06;5042220;28;20049;-72
2021/05/30 02:56:09;;;;;;;5.55;4.07;;;;;;;7.28;79.16;101889.81;5048905;28;20083;-73
2021/05/30 02:58:36;;;;;;;8.65;4.25;;;;;;;7.28;79.34;101887.19;5048597;28;20053;-72
2021/05/30 03:01:03;;;;;;;8.23;4.60;;;;;;;7.29;78.66;101889.78;5031885;28;20033;-71
2021/05/30 03:03:31;;;;;;;7.85;4.65;;;;;;;7.28;78.85;101892.44;5032562;28;20152;-72
2021/05/30 03:05:58;;;;;;;9.02;4.45;;;;;;;7.31;78.39;101895.00;5044362;28;20470;-72
2021/05/30 03:08:25;;;;;;;6.60;4.10;;;;;;;7.38;77.75;101899.16;5049621;28;20091;-72
2021/05/30 03:10:52;;;;;;;6.20;3.95;;;;;;;7.32;77.97;101899.31;5015545;28;20140;-72
2021/05/30 03:13:19;;;;;;;6.95;4.07;;;;;;;7.30;78.46;101902.00;5039275;28;20464;-71
2021/05/30 03:15:46;;;;;;;7.43;4.25;;;;;;;7.34;78.01;101901.03;5007334;28;20399;-73
2021/05/30 03:18:13;;;;;;;5.78;4.05;;;;;;;7.34;77.65;101897.53;5029088;28;20499;-72
2021/05/30 03:20:41;;;;;;;6.15;4.45;;;;;;;7.40;77.61;101900.00;5029879;28;20048;-71
2021/05/30 03:23:08;;;;;;;7.25;3.95;;;;;;;7.40;76.79;101899.13;5048992;28;20586;-71
2021/05/30 03:25:36;;;;;;;7.18;3.92;;;;;;;7.40;76.50;101900.00;5040117;28;20140;-71
2021/05/30 03:28:04;;;;;;;6.75;3.75;;;;;;;7.42;76.63;101903.41;5047421;28;20047;-73
2021/05/30 03:30:31;;;;;;;7.30;4.03;;;;;;;7.46;76.68;101904.22;5025286;28;20300;-71
2021/05/30 03:33:00;;;;;;;5.75;3.83;;;;;;;7.43;76.40;101904.28;5006655;28;20094;-73
2021/05/30 03:35:28;;;;;;;6.97;3.85;;;;;;;7.49;75.58;101907.63;5030813;28;20128;-73
2021/05/30 03:37:57;;;;;;;10.30;4.20;;;;;;;7.53;75.56;101909.25;5031032;28;20136;-72
2021/05/30 03:40:30;;;;;;;6.53;4.28;;;;;;;7.65;75.24;101912.44;5029451;28;20392;-72
2021/05/30 03:42:57;;;;;;;8.23;3.85;;;;;;;7.79;73.92;101910.31;5030066;28;20386;-72
2021/05/30 03:45:25;;;;;;;8.65;3.92;;;;;;;7.86;73.12;101906.66;5029098;28;20041;-72
2021/05/30 03:47:52;;;;;;;10.02;3.95;;;;;;;7.89;72.87;101909.19;5012769;28;20529;-72
2021/05/30 03:50:20;;;;;;;6.10;4.05;;;;;;;8.00;72.24;101911.50;5013990;28;20330;-73
2021/05/30 03:52:47;;;;;;;7.97;3.72;;;;;;;8.12;70.98;101905.94;5013102;28;20417;-72
2021/05/30 03:55:15;;;;;;;9.48;3.30;;;;;;;8.14;70.89;101909.34;5027348;28;20107;-72
2021/05/30 03:57:42;;;;;;;9.90;3.47;;;;;;;8.21;70.78;101908.28;5028643;28;20055;-72
2021/05/30 04:00:12;;;;;;;5.35;2.92;;;;;;;8.36;70.29;101905.25;5047319;28;20135;-72
2021/05/30 04:02:40;;;;;;;4.45;3.20;;;;;;;8.58;68.80;101902.00;5030505;28;20057;-72
2021/05/30 04:05:08;;;;;;;10.85;3.25;;;;;;;8.66;68.09;101901.78;5047078;28;20064;-72
2021/05/30 04:07:38;;;;;;;5.20;2.95;;;;;;;8.76;67.35;101908.44;4994559;28;20550;-72
2021/05/30 04:10:09;;;;;;;6.55;2.97;;;;;;;8.89;67.60;101901.91;5028465;28;20045;-72
2021/05/30 04:12:37;;;;;;;8.23;3.33;;;;;;;8.94;66.64;101914.91;5049735;28;20056;-72
2021/05/30 04:15:06;;;;;;;7.10;3.47;;;;;;;8.95;66.78;101914.84;5013614;28;20068;-71
2021/05/30 04:17:34;;;;;;;7.28;3.15;;;;;;;9.33;64.99;101918.00;5008059;28;20049;-73
2021/05/30 04:20:01;;;;;;;4.28;2.80;;;;;;;9.46;64.86;101923.72;5046941;28;20051;-71
2021/05/30 04:22:28;;;;;;;9.07;2.65;;;;;;;9.69;64.10;101922.94;5013324;28;20057;-71
2021/05/30 04:24:55;;;;;;;5.68;2.97;;;;;;;10.35;61.94;101917.03;5045022;28;20136;-71
2021/05/30 04:27:23;;;;;;;8.40;3.28;;;;;;;12.17;57.42;101914.00;5016324;28;20140;-72
2021/05/30 04:29:50;;;;;;;5.63;2.90;;;;;;;14.09;50.42;101918.69;5050181;28;20538;-73
2021/05/30 04:32:17;;;;;;;5.05;2.63;;;;;;;15.35;46.29;101910.78;5031118;28;20506;-72
2021/05/30 04:34:44;;;;;;;5.20;2.33;;;;;;;16.32;44.83;101910.28;5036371;28;20097;-73
2021/05/30 04:37:11;;;;;;;4.35;2.92;;;;;;;17.26;41.79;101913.97;5035729;28;20057;-73
2021/05/30 04:39:39;;;;;;;4.53;2.15;;;;;;;17.80;40.13;101913.03;5046504;28;20469;-73
2021/05/30 04:42:07;;;;;;;4.20;2.28;;;;;;;18.50;38.33;101913.38;5021853;28;20239;-71
2021/05/30 04:44:35;;;;;;;4.07;1.90;;;;;;;19.30;37.33;101910.22;5053685;28;20091;-72
2021/05/30 04:47:02;;;;;;;4.60;2.22;;;;;;;19.66;37.07;101910.13;5044849;28;20072;-72
2021/05/30 04:49:29;;;;;;;3.38;2.17;;;;;;;19.81;36.53;101916.09;5026282;28;20045;-72
2021/05/30 04:51:56;;;;;;;4.43;2.72;;;;;;;20.55;34.68;101910.34;5046776;28;20101;-72
2021/05/30 04:54:23;;;;;;;6.88;2.60;;;;;;;20.34;34.28;101905.69;5045701;28;20049;-72
2021/05/30 04:56:52;;;;;;;3.80;2.35;;;;;;;21.07;33.93;101900.69;5027981;28;20049;-72
2021/05/30 04:59:19;;;;;;;5.20;2.22;;;;;;;20.93;33.64;101907.19;5027032;28;20059;-72
2021/05/30 05:01:47;;;;;;;4.43;2.20;;;;;;;19.62;35.34;101906.00;5045954;28;20057;-71
2021/05/30 05:04:14;;;;;;;3.80;2.30;;;;;;;20.73;34.04;101907.00;5028285;28;20400;-73
2021/05/30 05:06:41;;;;;;;5.05;2.47;;;;;;;20.74;33.29;101907.84;5051816;28;20140;-72
2021/05/30 05:09:08;;;;;;;3.38;2.08;;;;;;;20.82;34.29;101909.91;5041641;28;20095;-73
2021/05/30 05:11:35;;;;;;;3.88;1.92;;;;;;;22.51;31.14;101902.56;5047608;28;20049;-72
2021/05/30 05:14:03;;;;;;;4.70;2.22;;;;;;;22.90;30.26;101902.69;5027585;28;20049;-71
2021/05/30 05:16:30;;;;;;;4.35;2.10;;;;;;;21.93;31.55;101911.22;5027290;28;20088;-72
2021/05/30 05:18:59;;;;;;;4.72;1.83;;;;;;;22.92;29.93;101904.28;5045193;28;20563;-71
2021/05/30 05:21:27;;;;;;;4.18;2.10;;;;;;;21.43;31.95;101919.09;5025586;28;20085;-73
2021/05/30 05:23:54;;;;;;;4.80;2.00;;;;;;;22.35;30.67;101904.94;5037420;28;20496;-72
2021/05/30 05:26:24;;;;;;;4.80;2.50;;;;;;;22.51;30.52;101907.94;5045238;28;20135;-73
2021/05/30 05:28:53;;;;;;;4.07;1.90;;;;;;;22.77;29.87;101908.28;5046771;28;20076;-73
2021/05/30 05:31:20;;;;;;;2.10;1.65;;;;;;;23.41;29.44;101906.94;5045291;28;20090;-73
2021/05/30 05:33:48;;;;;;;3.42;2.17;;;;;;;23.72;28.83;101910.31;5027945;28;20094;-70
2021/05/30 05:36:19;;;;;;;3.88;2.05;;;;;;;23.25;29.17;101902.16;5045647;28;20053;-72
2021/05/30 05:38:47;;;;;;;2.60;1.60;;;;;;;24.94;27.11;101903.78;5048438;28;20511;-73
2021/05/30 05:41:14;;;;;;;7.03;2.22;;;;;;;24.94;27.13;101905.66;5048086;28;20079;-73
2021/05/30 05:43:41;;;;;;;2.67;1.80;;;;;;;24.02;28.24;101905.72;5032448;28;20049;-73
2021/05/30 05:46:08;;;;;;;5.13;2.10;;;;;;;24.28;27.47;101905.91;5047450;28;20079;-72
2021/05/30 05:48:36;;;;;;;3.28;2.05;;;;;;;23.63;28.07;101917.38;5048714;28;20673;-73
2021/05/30 05:51:03;;;;;;;3.72;1.63;;;;;;;22.75;29.41;101911.13;5030547;28;20071;-72
2021/05/30 05:53:31;;;;;;;5.57;2.40;;;;;;;21.90;30.33;101918.69;5031828;28;20049;-73
2021/05/30 05:55:58;;;;;;;5.55;1.98;;;;;;;22.60;29.28;101917.00;5013360;28;20049;-73
2021/05/30 05:58:25;;;;;;;4.90;1.70;;;;;;;22.67;29.20;101916.34;5046229;28;20182;-73
2021/05/30 06:00:52;;;;;;;2.17;1.27;;;;;;;23.55;28.42;101914.59;5049514;28;20056;-72
2021/05/30 06:03:20;;;;;;;4.35;1.95;;;;;;;23.47;28.51;101923.34;5048289;28;20128;-73
2021/05/30 06:05:47;;;;;;;5.35;1.90;;;;;;;23.28;29.04;101919.81;5046504;28;20053;-73
2021/05/30 06:08:14;;;;;;;3.83;1.88;;;;;;;22.84;29.46;101908.59;5031190;28;20140;-74
2021/05/30 06:10:41;;;;;;;4.18;1.60;;;;;;;23.42;28.84;101917.56;5048724;28;20069;-72
2021/05/30 06:13:10;;;;;;;4.90;1.67;;;;;;;23.14;29.18;101921.94;5034730;28;20081;-72
2021/05/30 06:15:39;;;;;;;3.13;1.58;;;;;;;23.64;27.87;101911.06;5048282;28;20056;-73
2021/05/30 06:18:10;;;;;;;3.13;1.50;;;;;;;23.02;28.69;101912.31;5030658;28;20510;-73
2021/05/30 06:20:39;;;;;;;2.78;1.60;;;;;;;23.37;28.50;101921.63;5049652;28;20448;-71
2021/05/30 06:23:06;;;;;;;3.38;1.60;;;;;;;24.29;27.22;101921.03;5046891;28;20055;-72
2021/05/30 06:25:34;;;;;;;6.10;1.92;;;;;;;24.90;26.60;101920.41;5044698;28;20124;-72
2021/05/30 06:28:02;;;;;;;4.72;1.67;;;;;;;25.05;25.64;101924.28;5040075;28;20104;-73
2021/05/30 06:30:33;;;;;;;6.10;1.70;;;;;;;25.72;25.24;101927.41;5020485;28;20072;-73
2021/05/30 06:33:01;;;;;;;4.22;1.90;;;;;;;26.23;24.54;101925.72;5022441;28;20463;-73
2021/05/30 06:35:30;;;;;;;5.55;2.33;;;;;;;26.18;24.11;101942.41;5049530;28;20379;-73
2021/05/30 06:38:01;;;;;;;3.17;1.70;;;;;;;23.61;26.96;101927.44;5020032;28;20522;-73
2021/05/30 06:40:28;;;;;;;5.00;1.70;;;;;;;23.74;26.34;101922.63;5047681;28;20117;-73
2021/05/30 06:42:56;;;;;;;4.93;1.70;;;;;;;23.12;27.09;101929.28;5040063;28;20052;-73
2021/05/30 06:45:23;;;;;;;3.15;1.38;;;;;;;24.03;26.05;101929.78;5038368;28;20553;-72
2021/05/30 06:47:51;;;;;;;3.90;1.85;;;;;;;23.53;26.40;101938.06;4998348;28;20491;-74
2021/05/30 06:50:18;;;;;;;4.45;1.88;;;;;;;22.74;26.46;101930.91;5030059;28;20061;-73
2021/05/30 06:52:45;;;;;;;2.80;1.63;;;;;;;23.34;25.41;101928.16;5033381;28;22127;-73
2021/05/30 06:55:13;;;;;;;4.15;1.80;;;;;;;22.07;27.77;101930.63;5034379;28;20044;-73
2021/05/30 06:57:40;;;;;;;4.40;1.70;;;;;;;23.82;25.16;101931.81;5057320;28;20084;-73
2021/05/30 07:00:08;;;;;;;4.65;1.60;;;;;;;24.73;24.59;101943.66;5039093;28;20111;-74
2021/05/30 07:02:36;;;;;;;5.70;1.50;;;;;;;24.94;24.04;101949.59;5034494;28;20049;-71
2021/05/30 07:05:04;;;;;;;3.58;1.60;;;;;;;25.75;23.12;101946.81;5032456;28;20579;-73
2021/05/30 07:07:31;;;;;;;3.53;1.40;;;;;;;25.92;22.36;101946.97;5030877;28;20061;-73
2021/05/30 07:09:58;;;;;;;4.35;1.60;;;;;;;24.07;24.85;101944.63;5016957;28;20148;-72
2021/05/30 07:12:25;;;;;;;9.38;1.83;;;;;;;24.46;24.35;101941.81;5038672;28;20080;-73
2021/05/30 07:14:53;;;;;;;5.07;1.77;;;;;;;24.16;24.41;101943.75;5035504;28;20072;-73
2021/05/30 07:17:20;;;;;;;4.00;1.88;;;;;;;24.30;24.44;101946.94;5045503;28;20530;-72
2021/05/30 07:19:50;;;;;;;3.55;1.65;;;;;;;25.83;22.90;101945.22;5029396;28;20571;-72
2021/05/30 07:22:17;;;;;;;4.22;1.35;;;;;;;26.59;22.28;101941.78;5045632;22;20058;-67
2021/05/30 07:24:44;;;;;;;3.65;1.42;;;;;;;27.02;21.48;101943.41;5024519;28;20079;-66
2021/05/30 07:27:11;;;;;;;3.58;1.77;;;;;;;25.98;21.92;101951.72;5024132;28;20458;-67
2021/05/30 07:29:38;;;;;;;2.78;1.52;;;;;;;25.16;23.29;101948.34;5022431;28;20083;-67
2021/05/30 07:32:05;;;;;;;2.88;1.55;;;;;;;22.93;25.71;101951.59;5027394;28;20075;-68
2021/05/30 07:34:33;;;;;;;3.47;1.63;;;;;;;24.24;24.80;101951.09;5029412;28;20057;-65
2021/05/30 07:37:00;;;;;;;3.70;1.65;;;;;;;24.89;24.21;101942.97;5032472;28;20067;-65
2021/05/30 07:39:27;;;;;;;6.10;1.92;;;;;;;24.18;25.33;101944.47;5021260;28;20128;-66
2021/05/30 07:41:54;;;;;;;7.35;2.00;;;;;;;24.40;25.11;101942.41;5025780;28;20160;-66
2021/05/30 07:44:21;;;;;;;4.22;1.70;;;;;;;24.57;25.27;101941.59;5009903;28;20522;-66
2021/05/30 07:46:49;;;;;;;3.22;1.50;;;;;;;24.90;24.24;101942.84;5020804;28;20087;-66
2021/05/30 07:49:16;;;;;;;3.05;1.52;;;;;;;26.90;21.99;101940.16;5030078;28;20058;-65
2021/05/30 07:51:44;;;;;;;5.10;2.03;;;;;;;26.51;22.49;101942.56;5036095;28;20123;-66
2021/05/30 07:54:11;;;;;;;3.15;1.70;;;;;;;26.32;22.58;101937.41;5018821;28;20994;-66
2021/05/30 07:56:38;;;;;;;2.63;1.58;;;;;;;25.59;22.91;101952.09;5022102;28;20156;-65
2021/05/30 07:59:08;;;;;;;4.35;2.13;;;;;;;24.34;24.12;101959.13;5019679;28;20430;-66
2021/05/30 08:01:35;;;;;;;2.70;1.65;;;;;;;25.31;23.81;101948.66;5023390;28;20054;-67
2021/05/30 08:04:03;;;;;;;2.40;1.50;;;;;;;26.16;22.55;101952.53;5022712;28;20049;-67
2021/05/30 08:06:31;;;;;;;4.70;1.67;;;;;;;27.73;20.98;101950.91;5035536;28;20140;-67
2021/05/30 08:13:02;;;;;;;2.90;1.30;;;;;;;25.98;23.02;101946.31;5027616;28;20120;-65
2021/05/30 08:15:29;;;;;;;2.78;1.70;;;;;;;26.59;22.38;101949.88;5027201;28;20053;-66
2021/05/30 08:17:56;;;;;;;6.22;2.00;;;;;;;24.43;24.16;101950.19;5030060;28;20033;-67
2021/05/30 08:20:24;;;;;;;4.72;1.50;;;;;;;24.58;23.84;101943.28;5032281;28;20137;-66
2021/05/30 08:22:52;;;;;;;4.90;1.58;;;;;;;25.74;22.22;101939.72;4988435;28;20058;-66
2021/05/30 08:25:19;;;;;;;3.05;1.50;;;;;;;24.45;23.45;101940.97;5008815;28;20081;-66
2021/05/30 08:27:47;;;;;;;2.78;1.50;;;;;;;23.24;23.37;101932.69;5010791;28;20050;-66
2021/05/30 08:30:16;;;;;;;3.55;1.60;;;;;;;21.69;26.11;101943.66;5004275;28;20057;-65
2021/05/30 08:32:44;;;;;;;4.20;1.30;;;;;;;20.11;26.95;101944.09;4995020;28;20042;-65
2021/05/30 08:35:12;;;;;;;5.32;1.42;;;;;;;19.20;28.62;101953.63;5012057;28;20517;-66
2021/05/30 08:37:43;;;;;;;3.72;1.10;;;;;;;18.41;28.98;101949.56;4996254;28;20145;-66
2021/05/30 08:40:15;;;;;;;3.33;1.45;;;;;;;18.14;29.53;101946.16;5008260;28;20516;-67
2021/05/30 08:42:44;;;;;;;3.65;1.48;;;;;;;18.15;30.20;101963.91;5001990;28;20488;-66
2021/05/30 08:45:14;;;;;;;11.38;2.42;;;;;;;17.66;30.33;101948.56;4992082;28;20076;-65
2021/05/30 08:47:41;;;;;;;4.10;1.75;;;;;;;17.13;31.25;101951.19;4989271;28;20095;-66
2021/05/30 08:50:09;;;;;;;7.05;2.00;;;;;;;17.02;31.43;101947.50;4989014;28;20153;-67
2021/05/30 08:52:39;;;;;;;4.50;1.67;;;;;;;16.68;31.70;101971.78;4991565;28;20157;-65
2021/05/30 08:55:08;;;;;;;7.38;1.75;;;;;;;16.69;32.63;101954.88;4983173;28;20053;-67
2021/05/30 08:57:35;;;;;;;3.85;1.60;;;;;;;16.89;32.57;101943.00;5009517;28;20593;-65
2021/05/30 09:00:04;;;;;;;3.58;1.60;;;;;;;16.78;32.52;101955.25;5004055;28;20058;-66
2021/05/30 09:02:31;;;;;;;5.53;1.80;;;;;;;16.82;32.96;101954.97;4988293;28;20057;-66
2021/05/30 09:05:07;;;;;;;2.58;1.50;;;;;;;16.88;33.38;101930.63;4996084;28;20046;-67
2021/05/30 09:07:44;;;;;;;3.97;1.40;;;;;;;16.97;33.39;101942.47;5006198;28;20488;-65
2021/05/30 09:10:18;;;;;;;4.35;1.58;;;;;;;16.96;33.74;101931.00;4989321;28;20104;-67
2021/05/30 09:13:10;;;;;;;3.35;1.75;;;;;;;17.17;33.58;101942.03;4994249;28;20244;-65
2021/05/30 09:18:20;;;;;;;3.15;1.63;;;;;;;17.19;33.67;101950.78;4997315;28;20141;-65
2021/05/30 09:20:55;;;;;;;4.82;1.45;;;;;;;17.04;33.74;101935.81;4991451;28;20119;-64
2021/05/30 09:23:31;;;;;;;3.90;1.70;;;;;;;17.01;33.91;101935.16;5040072;28;20037;-66
2021/05/30 09:26:14;;;;;;;2.42;1.40;;;;;;;17.01;34.43;101940.47;5035296;28;20064;-66
2021/05/30 09:29:04;;;;;;;5.18;2.08;;;;;;;17.31;33.52;101924.31;5030450;28;20042;-65
2021/05/30 09:31:32;;;;;;;4.22;1.60;;;;;;;17.76;33.56;101931.03;5032964;28;20119;-65
2021/05/30 09:33:59;;;;;;;5.38;1.70;;;;;;;17.84;33.58;101941.19;5047272;28;20058;-67
2021/05/30 09:36:26;;;;;;;4.28;1.75;;;;;;;17.56;33.41;101931.50;5033491;28;20085;-65
2021/05/30 09:39:04;;;;;;;3.65;1.70;;;;;;;17.69;33.93;101943.03;5010133;28;20057;-65
2021/05/30 09:41:32;;;;;;;4.53;1.92;;;;;;;18.04;33.82;101961.97;5048030;28;20084;-66
2021/05/30 09:43:59;;;;;;;6.35;1.95;;;;;;;17.75;33.14;101942.66;5040749;28;20049;-66
2021/05/30 09:46:33;;;;;;;4.07;1.75;;;;;;;17.48;33.83;101923.19;5031728;28;20060;-66
2021/05/30 09:49:01;;;;;;;3.65;1.83;;;;;;;17.44;34.20;101935.84;5031599;28;20468;-67
2021/05/30 09:51:40;;;;;;;4.75;1.80;;;;;;;17.78;33.43;101939.75;5051718;28;20060;-67
2021/05/30 09:54:11;;;;;;;3.58;1.70;;;;;;;17.38;33.23;101950.44;5033141;28;20061;-65
2021/05/30 09:56:44;;;;;;;8.45;2.03;;;;;;;17.45;33.82;101930.41;5038209;28;20057;-64
2021/05/30 09:59:19;;;;;;;4.70;1.90;;;;;;;17.41;33.99;101946.69;5033355;28;20057;-67
2021/05/30 10:01:54;;;;;;;4.47;1.63;;;;;;;17.48;33.82;101940.03;5040761;28;20054;-66
2021/05/30 10:04:22;;;;;;;3.67;1.60;;;;;;;17.55;33.35;101951.94;5036298;28;20499;-64
2021/05/30 10:06:50;;;;;;;4.00;1.88;;;;;;;17.27;34.08;101954.75;5037718;28;20068;-65
2021/05/30 10:09:18;;;;;;;5.78;1.85;;;;;;;17.24;34.23;101941.63;5035669;28;20137;-65
2021/05/30 10:11:45;;;;;;;2.97;1.45;;;;;;;17.08;34.44;101945.31;5032221;28;20077;-66
2021/05/30 10:14:13;;;;;;;5.10;1.88;;;;;;;17.13;34.40;101935.22;5033189;28;20067;-67
2021/05/30 10:16:40;;;;;;;3.20;1.80;;;;;;;17.33;34.69;101936.56;5032447;28;20173;-64
2021/05/30 10:19:14;;;;;;;4.20;1.73;;;;;;;17.66;34.57;101936.09;5034106;28;20061;-67
2021/05/30 10:21:49;;;;;;;5.72;1.55;;;;;;;17.47;34.22;101940.94;5031385;28;20049;-66
2021/05/30 10:24:17;;;;;;;2.58;1.70;;;;;;;17.50;34.17;101937.25;5025032;28;20061;-66
2021/05/30 10:27:10;;;;;;;4.78;2.10;;;;;;;17.42;34.47;101935.94;5033781;28;20045;-67
2021/05/30 10:29:37;;;;;;;3.05;1.70;;;;;;;17.42;34.80;101914.63;5028871;28;20045;-67
2021/05/30 10:32:18;;;;;;;4.35;1.88;;;;;;;17.26;34.71;101934.41;5027349;28;20558;-66
2021/05/30 10:35:07;;;;;;;5.15;1.40;;;;;;;17.68;34.24;101926.19;5026806;28;20881;-64
2021/05/30 10:37:57;;;;;;;6.78;1.92;;;;;;;17.85;34.58;101922.41;5032640;28;20050;-65
2021/05/30 10:40:38;;;;;;;6.32;2.05;;;;;;;18.08;34.08;101917.31;5023878;28;20157;-66
2021/05/30 10:43:09;;;;;;;6.47;2.20;;;;;;;18.27;33.93;101916.84;5032407;28;20049;-66
2021/05/30 10:45:41;;;;;;;5.50;2.15;;;;;;;18.03;34.33;101940.75;5036862;28;20079;-65
2021/05/30 10:48:13;;;;;;;9.10;2.28;;;;;;;17.63;34.68;101927.47;5032854;28;20060;-66
2021/05/30 10:53:43;;;;;;;7.60;2.63;;;;;;;17.80;34.75;101918.38;5036710;28;20414;-66
2021/05/30 10:56:26;;;;;;;6.32;2.03;;;;;;;17.75;34.97;101907.19;5029134;28;20608;-67
2021/05/30 10:59:02;;;;;;;6.13;1.70;;;;;;;17.96;35.19;101911.00;5023038;28;20054;-66
2021/05/30 11:01:40;;;;;;;4.03;1.50;;;;;;;18.10;35.19;101905.59;5038492;28;20049;-65
2021/05/30 11:06:53;;;;;;;6.07;1.80;;;;;;;17.84;35.70;101914.53;5020742;28;20045;-67
2021/05/30 11:09:21;;;;;;;5.18;1.80;;;;;;;17.64;35.88;101905.19;5047120;28;20124;-66
2021/05/30 11:12:17;;;;;;;4.38;2.00;;;;;;;17.84;35.74;101903.88;5007681;28;20125;-67
2021/05/30 11:15:10;;;;;;;9.52;2.45;;;;;;;17.79;35.55;101914.84;5007513;28;20092;-65
2021/05/30 11:17:58;;;;;;;2.85;1.70;;;;;;;18.22;35.30;101901.19;5033283;28;20144;-66
2021/05/30 11:20:43;;;;;;;6.22;2.25;;;;;;;18.23;34.79;101900.22;5037514;28;20061;-66
2021/05/30 11:23:13;;;;;;;5.50;1.85;;;;;;;18.12;35.73;101897.47;4982852;28;20053;-67
2021/05/30 11:25:46;;;;;;;5.90;1.98;;;;;;;18.09;36.23;101903.00;4987321;28;20058;-66
2021/05/30 11:28:18;;;;;;;5.25;2.15;;;;;;;18.18;35.56;101908.53;4972210;28;20050;-66
2021/05/30 11:30:48;;;;;;;7.43;1.70;;;;;;;18.16;34.51;101894.47;5001971;28;20108;-66
2021/05/30 11:33:21;;;;;;;5.10;1.95;;;;;;;18.22;34.65;101902.03;4994895;28;20052;-66
2021/05/30 11:35:50;;;;;;;4.70;1.80;;;;;;;18.33;34.71;101890.63;4997911;28;20107;-67
2021/05/30 11:38:18;;;;;;;3.47;2.00;;;;;;;18.14;34.46;101908.84;4998027;28;20144;-68
2021/05/30 11:40:45;;;;;;;4.30;2.10;;;;;;;18.12;34.82;101893.00;4999943;28;20049;-66
2021/05/30 11:43:16;;;;;;;3.63;2.10;;;;;;;18.07;34.31;101900.47;5008679;28;20054;-65
2021/05/30 11:45:45;;;;;;;5.88;2.10;;;;;;;18.01;33.63;101905.34;4985555;28;20054;-66
2021/05/30 11:48:15;;;;;;;4.18;2.05;;;;;;;18.21;34.20;101896.81;5001497;28;20587;-66
2021/05/30 11:50:55;;;;;;;3.47;1.63;;;;;;;18.29;34.46;101893.63;5002513;28;20041;-66